createdAt,value
2018-11-10T00:00:28.755Z,8.10
2018-11-10T00:04:19.421Z,8.06
2018-11-10T00:04:59.792Z,7.92
2018-11-10T00:09:56.076Z,7.76
2018-11-10T00:11:02.042Z,7.67
2018-11-10T00:12:17.090Z,7.60
2018-11-10T00:13:17.025Z,7.69
2018-11-10T00:13:56.374Z,7.71
2018-11-10T00:14:55.362Z,7.76
2018-11-10T00:16:14.445Z,7.67
2018-11-10T00:21:13.827Z,7.88
2018-11-10T00:22:36.341Z,7.91
2018-11-10T00:23:16.366Z,7.95
2018-11-10T00:24:39.287Z,7.96
2018-11-10T00:25:14.334Z,7.86
2018-11-10T00:26:16.311Z,7.84
2018-11-10T00:31:28.011Z,7.88
2018-11-10T00:34:09.411Z,7.76
2018-11-10T00:34:57.886Z,7.70
2018-11-10T00:35:57.909Z,7.73
2018-11-10T00:37:05.868Z,7.69
2018-11-10T00:38:02.413Z,7.73
2018-11-10T00:38:55.911Z,7.67
2018-11-10T00:39:57.894Z,7.66
2018-11-10T00:40:55.063Z,7.52
2018-11-10T00:41:57.907Z,7.50
2018-11-10T00:43:06.873Z,7.41
2018-11-10T00:43:55.100Z,7.26
2018-11-10T00:44:55.929Z,7.26
2018-11-10T00:45:56.911Z,7.30
2018-11-10T00:50:32.801Z,7.66
2018-11-10T00:51:17.023Z,7.67
2018-11-10T00:52:21.022Z,7.84
2018-11-10T00:53:25.058Z,7.99
2018-11-10T00:54:14.067Z,8.02
2018-11-10T00:55:17.053Z,8.06
2018-11-10T00:56:16.037Z,8.00
2018-11-10T00:57:57.277Z,7.94
2018-11-10T01:02:15.754Z,7.66
2018-11-10T01:03:13.814Z,7.57
2018-11-10T01:04:49.649Z,7.50
2018-11-10T01:05:39.728Z,7.34
2018-11-10T01:06:14.663Z,7.42
2018-11-10T01:07:17.646Z,7.41
2018-11-10T01:08:18.737Z,7.32
2018-11-10T01:09:45.655Z,7.37
2018-11-10T01:10:28.700Z,7.42
2018-11-10T02:06:21.963Z,6.91
2018-11-10T04:33:51.492Z,6.87
2018-11-10T04:34:41.461Z,6.79
2018-11-10T04:35:48.000Z,6.79
2018-11-10T04:36:43.012Z,6.79
2018-11-10T04:37:41.989Z,6.81
2018-11-10T04:39:17.855Z,6.78
2018-11-10T04:59:01.124Z,7.29
2018-11-10T05:00:08.323Z,7.32
2018-11-10T05:00:46.141Z,7.19
2018-11-10T05:04:00.618Z,7.36
2018-11-10T05:08:45.049Z,7.36
2018-11-10T05:09:45.958Z,7.51
2018-11-10T05:10:44.930Z,7.55
2018-11-10T05:20:10.787Z,7.58
2018-11-10T05:21:10.814Z,7.60
2018-11-10T05:22:11.738Z,7.57
2018-11-10T05:26:30.264Z,7.51
2018-11-10T05:27:29.701Z,7.57
2018-11-10T05:32:48.246Z,7.84
2018-11-10T06:12:29.607Z,7.47
2018-11-10T06:13:28.019Z,7.54
2018-11-10T07:36:32.820Z,9.70
2018-11-10T07:37:11.861Z,9.89
2018-11-10T07:39:33.815Z,10.13
2018-11-10T07:40:33.792Z,10.34
2018-11-10T07:41:33.789Z,10.83
2018-11-10T07:42:33.760Z,11.30
2018-11-10T07:43:33.752Z,11.64
2018-11-10T07:44:33.753Z,12.19
2018-11-10T07:45:33.740Z,12.48
2018-11-10T07:46:33.762Z,12.54
2018-11-10T07:47:33.792Z,12.62
2018-11-10T07:48:33.732Z,12.59
2018-11-10T07:49:33.715Z,12.38
2018-11-10T07:50:33.683Z,12.04
2018-11-10T07:51:33.716Z,11.63
2018-11-10T07:52:33.820Z,11.45
2018-11-10T07:53:33.650Z,11.44
2018-11-10T07:54:33.675Z,11.31
2018-11-10T07:55:33.621Z,11.21
2018-11-10T07:56:33.684Z,11.27
2018-11-10T07:57:33.598Z,11.24
2018-11-10T07:58:33.589Z,11.24
2018-11-10T07:59:33.688Z,11.26
2018-11-10T08:00:33.587Z,11.24
2018-11-10T08:01:33.602Z,11.19
2018-11-10T08:02:33.544Z,11.17
2018-11-10T08:03:33.546Z,11.28
2018-11-10T08:04:33.596Z,11.27
2018-11-10T08:05:33.511Z,11.28
2018-11-10T08:06:33.500Z,11.31
2018-11-10T08:07:33.489Z,11.24
2018-11-10T08:08:33.486Z,11.26
2018-11-10T08:09:33.494Z,11.27
2018-11-10T08:10:33.558Z,11.35
2018-11-10T08:11:33.444Z,11.45
2018-11-10T08:12:33.443Z,11.42
2018-11-10T08:13:33.433Z,11.45
2018-11-10T08:14:33.434Z,11.38
2018-11-10T08:15:33.400Z,11.28
2018-11-10T08:16:33.411Z,11.36
2018-11-10T08:17:33.427Z,11.39
2018-11-10T08:18:33.383Z,11.44
2018-11-10T08:19:33.378Z,11.44
2018-11-10T08:20:33.389Z,11.44
2018-11-10T08:21:33.336Z,11.28
2018-11-10T08:22:33.327Z,11.33
2018-11-10T08:23:33.336Z,11.39
2018-11-10T08:24:33.352Z,11.38
2018-11-10T08:25:33.295Z,11.46
2018-11-10T08:26:33.286Z,11.39
2018-11-10T08:27:33.271Z,11.44
2018-11-10T08:28:33.261Z,11.45
2018-11-10T08:29:33.278Z,11.57
2018-11-10T08:30:33.275Z,11.51
2018-11-10T08:31:33.230Z,11.54
2018-11-10T08:32:33.257Z,11.48
2018-11-10T08:33:33.220Z,11.26
2018-11-10T08:34:33.216Z,11.09
2018-11-10T08:35:33.203Z,11.26
2018-11-10T08:36:33.208Z,11.26
2018-11-10T08:37:33.202Z,11.23
2018-11-10T08:38:33.154Z,11.05
2018-11-10T08:39:33.163Z,11.13
2018-11-10T08:40:33.133Z,11.03
2018-11-10T08:41:33.122Z,11.11
2018-11-10T08:42:33.156Z,11.09
2018-11-10T08:43:33.130Z,11.08
2018-11-10T08:44:33.125Z,11.12
2018-11-10T08:45:33.114Z,11.11
2018-11-10T08:46:33.068Z,11.21
2018-11-10T08:47:33.065Z,11.16
2018-11-10T08:48:33.048Z,11.24
2018-11-10T08:49:33.052Z,11.33
2018-11-10T08:50:33.026Z,11.31
2018-11-10T08:51:33.073Z,11.35
2018-11-10T08:52:33.041Z,11.39
2018-11-10T08:53:33.001Z,11.45
2018-11-10T08:54:33.037Z,11.48
2018-11-10T08:55:32.970Z,11.41
2018-11-10T08:56:32.960Z,11.35
2018-11-10T08:57:32.960Z,11.30
2018-11-10T08:58:32.962Z,11.44
2018-11-10T08:59:33.003Z,11.42
2018-11-10T09:00:32.918Z,11.28
2018-11-10T09:01:32.929Z,11.36
2018-11-10T09:02:32.894Z,11.48
2018-11-10T09:03:32.882Z,11.39
2018-11-10T09:04:32.886Z,11.48
2018-11-10T09:05:32.891Z,11.38
2018-11-10T09:06:32.902Z,11.35
2018-11-10T09:07:32.842Z,11.31
2018-11-10T09:08:32.828Z,11.23
2018-11-10T09:09:32.830Z,11.16
2018-11-10T09:10:32.808Z,11.09
2018-11-10T09:11:32.798Z,11.11
2018-11-10T09:12:32.811Z,11.08
2018-11-10T09:13:33.126Z,11.11
2018-11-10T09:14:32.815Z,11.03
2018-11-10T09:15:32.755Z,11.05
2018-11-10T09:16:32.764Z,11.03
2018-11-10T09:17:32.805Z,11.02
2018-11-10T09:18:32.726Z,11.01
2018-11-10T09:19:32.725Z,11.08
2018-11-10T09:20:32.724Z,11.11
2018-11-10T09:21:32.737Z,11.12
2018-11-10T09:22:32.692Z,11.24
2018-11-10T09:23:32.676Z,11.26
2018-11-10T09:24:32.685Z,11.27
2018-11-10T09:25:32.694Z,11.39
2018-11-10T09:26:32.633Z,11.46
2018-11-10T09:27:32.632Z,11.59
2018-11-10T09:28:32.611Z,11.56
2018-11-10T09:29:32.611Z,11.62
2018-11-10T09:30:32.615Z,11.62
2018-11-10T09:31:32.616Z,11.75
2018-11-10T09:32:32.572Z,11.72
2018-11-10T09:33:32.565Z,11.78
2018-11-10T09:34:32.551Z,11.84
2018-11-10T09:35:32.569Z,11.90
2018-11-10T09:36:32.553Z,11.98
2018-11-10T09:37:32.528Z,11.97
2018-11-10T09:38:32.504Z,12.03
2018-11-10T09:39:32.494Z,12.13
2018-11-10T09:40:32.494Z,12.30
2018-11-10T09:41:32.470Z,12.38
2018-11-10T09:42:32.670Z,12.38
2018-11-10T09:43:32.497Z,12.40
2018-11-10T09:44:32.439Z,12.51
2018-11-10T09:45:32.458Z,12.41
2018-11-10T09:46:32.419Z,12.54
2018-11-10T09:47:32.415Z,12.56
2018-11-10T09:48:32.392Z,12.56
2018-11-10T09:49:32.403Z,12.59
2018-11-10T09:50:32.483Z,12.54
2018-11-10T09:51:32.369Z,12.62
2018-11-10T09:52:32.362Z,12.66
2018-11-10T09:53:32.339Z,12.67
2018-11-10T09:54:32.329Z,12.67
2018-11-10T09:55:32.327Z,12.66
2018-11-10T09:56:32.346Z,12.70
2018-11-10T09:57:32.294Z,12.74
2018-11-10T09:58:32.291Z,12.95
2018-11-10T09:59:32.280Z,12.95
2018-11-10T10:00:32.272Z,12.84
2018-11-10T10:01:32.492Z,12.88
2018-11-10T10:02:32.708Z,12.88
2018-11-10T10:03:32.225Z,12.87
2018-11-10T10:04:32.217Z,12.89
2018-11-10T10:05:32.220Z,13.01
2018-11-10T10:06:32.194Z,12.96
2018-11-10T10:07:32.182Z,13.03
2018-11-10T10:08:32.309Z,12.92
2018-11-10T10:09:32.201Z,12.89
2018-11-10T10:10:32.162Z,12.84
2018-11-10T10:11:32.140Z,12.88
2018-11-10T10:12:32.128Z,12.91
2018-11-10T10:13:32.136Z,12.95
2018-11-10T10:14:32.124Z,13.04
2018-11-10T10:15:32.135Z,13.06
2018-11-10T10:16:32.170Z,13.24
2018-11-10T10:17:32.078Z,13.44
2018-11-10T10:18:32.064Z,13.44
2018-11-10T10:19:32.056Z,13.41
2018-11-10T10:20:32.097Z,13.43
2018-11-10T10:21:32.070Z,13.43
2018-11-10T10:22:32.025Z,13.54
2018-11-10T10:23:32.015Z,13.68
2018-11-10T10:24:31.999Z,13.79
2018-11-10T10:25:32.000Z,13.90
2018-11-10T10:26:31.995Z,13.88
2018-11-10T10:27:31.967Z,13.79
2018-11-10T10:28:32.058Z,13.66
2018-11-10T10:29:31.945Z,13.62
2018-11-10T10:30:31.948Z,13.51
2018-11-10T10:31:31.923Z,13.55
2018-11-10T10:32:31.930Z,13.61
2018-11-10T10:33:32.008Z,13.66
2018-11-10T10:34:32.056Z,13.61
2018-11-10T10:35:32.052Z,13.68
2018-11-10T10:36:31.898Z,13.66
2018-11-10T10:37:31.901Z,13.61
2018-11-10T10:38:31.861Z,13.62
2018-11-10T10:39:31.925Z,13.63
2018-11-10T10:40:31.864Z,13.65
2018-11-10T10:41:31.889Z,13.72
2018-11-10T10:42:31.813Z,13.80
2018-11-10T10:43:31.814Z,13.72
2018-11-10T10:44:31.787Z,13.76
2018-11-10T10:45:31.827Z,13.84
2018-11-10T10:46:31.953Z,13.73
2018-11-10T10:47:31.765Z,13.73
2018-11-10T10:48:31.819Z,13.80
2018-11-10T10:49:31.729Z,13.96
2018-11-10T10:50:31.730Z,14.13
2018-11-10T10:51:31.716Z,14.31
2018-11-10T10:52:31.697Z,14.27
2018-11-10T10:53:31.683Z,14.45
2018-11-10T10:54:31.673Z,14.41
2018-11-10T10:55:31.674Z,14.26
2018-11-10T10:56:31.772Z,14.44
2018-11-10T10:57:31.661Z,14.53
2018-11-10T10:58:31.632Z,14.72
2018-11-10T10:59:31.633Z,14.87
2018-11-10T11:00:31.620Z,14.80
2018-11-10T11:01:31.595Z,14.66
2018-11-10T11:02:31.596Z,14.26
2018-11-10T11:03:31.732Z,14.02
2018-11-10T11:04:31.590Z,14.27
2018-11-10T11:05:31.567Z,14.44
2018-11-10T11:06:31.551Z,14.64
2018-11-10T11:07:31.589Z,14.75
2018-11-10T11:08:31.855Z,14.74
2018-11-10T11:09:31.583Z,14.91
2018-11-10T11:10:31.512Z,15.03
2018-11-10T11:11:31.512Z,15.09
2018-11-10T11:12:31.479Z,15.09
2018-11-10T11:13:31.467Z,15.12
2018-11-10T11:14:31.479Z,15.00
2018-11-10T11:15:31.539Z,15.01
2018-11-10T11:16:31.434Z,15.03
2018-11-10T11:17:31.421Z,15.04
2018-11-10T11:18:31.412Z,15.13
2018-11-10T11:19:31.425Z,15.12
2018-11-10T11:20:31.406Z,15.19
2018-11-10T11:21:31.478Z,15.37
2018-11-10T11:22:31.394Z,15.51
2018-11-10T11:23:31.382Z,15.52
2018-11-10T11:24:31.363Z,15.70
2018-11-10T11:25:31.393Z,15.74
2018-11-10T11:26:31.320Z,15.66
2018-11-10T11:27:31.335Z,15.99
2018-11-10T11:28:31.318Z,16.07
2018-11-10T11:29:31.439Z,16.17
2018-11-10T11:30:31.378Z,16.22
2018-11-10T11:31:31.270Z,16.18
2018-11-10T11:32:31.261Z,16.25
2018-11-10T11:33:31.294Z,16.01
2018-11-10T11:34:31.237Z,15.98
2018-11-10T11:35:31.385Z,15.88
2018-11-10T11:36:31.349Z,15.77
2018-11-10T11:37:31.225Z,15.77
2018-11-10T11:38:31.194Z,15.86
2018-11-10T11:39:31.188Z,15.92
2018-11-10T11:40:31.189Z,15.93
2018-11-10T11:41:31.486Z,16.04
2018-11-10T11:42:31.175Z,16.06
2018-11-10T11:43:31.252Z,16.16
2018-11-10T11:44:31.141Z,16.04
2018-11-10T11:45:31.153Z,15.99
2018-11-10T11:46:31.273Z,15.96
2018-11-10T11:47:31.120Z,16.06
2018-11-10T11:48:31.089Z,16.08
2018-11-10T11:49:31.155Z,16.08
2018-11-10T11:50:31.114Z,16.03
2018-11-10T11:51:31.055Z,15.84
2018-11-10T11:52:31.054Z,15.64
2018-11-10T11:53:31.036Z,15.66
2018-11-10T11:54:31.118Z,15.64
2018-11-10T11:55:31.043Z,15.66
2018-11-10T11:56:31.035Z,15.71
2018-11-10T11:57:31.022Z,15.76
2018-11-10T11:58:31.009Z,15.84
2018-11-10T11:59:30.968Z,15.92
2018-11-10T12:00:30.965Z,16.07
2018-11-10T12:01:30.976Z,16.10
2018-11-10T12:02:30.969Z,16.08
2018-11-10T12:03:30.951Z,16.10
2018-11-10T12:04:30.992Z,16.10
2018-11-10T12:05:30.940Z,16.10
2018-11-10T12:06:30.910Z,16.14
2018-11-10T12:07:30.886Z,16.16
2018-11-10T12:08:30.877Z,16.17
2018-11-10T12:09:30.883Z,16.13
2018-11-10T12:10:30.879Z,16.22
2018-11-10T12:11:30.944Z,16.25
2018-11-10T12:12:30.870Z,16.40
2018-11-10T12:13:30.821Z,16.33
2018-11-10T12:14:30.839Z,16.27
2018-11-10T12:15:30.973Z,16.27
2018-11-10T12:16:30.927Z,16.27
2018-11-10T12:17:30.775Z,16.06
2018-11-10T12:18:30.805Z,16.11
2018-11-10T12:19:30.775Z,16.08
2018-11-10T12:20:30.747Z,16.11
2018-11-10T12:21:30.775Z,16.06
2018-11-10T12:22:30.722Z,15.96
2018-11-10T12:23:30.717Z,15.92
2018-11-10T12:24:30.733Z,15.92
2018-11-10T12:25:30.771Z,15.77
2018-11-10T12:26:30.769Z,15.66
2018-11-10T12:27:30.667Z,15.71
2018-11-10T12:28:30.667Z,15.64
2018-11-10T12:29:30.773Z,15.71
2018-11-10T12:30:30.672Z,15.73
2018-11-10T12:31:30.711Z,15.64
2018-11-10T12:32:30.665Z,15.64
2018-11-10T12:33:30.603Z,15.66
2018-11-10T12:34:30.610Z,15.66
2018-11-10T12:35:30.621Z,15.60
2018-11-10T12:36:30.605Z,15.71
2018-11-10T12:37:30.584Z,15.73
2018-11-10T12:38:30.552Z,15.73
2018-11-10T12:39:30.534Z,15.88
2018-11-10T12:40:30.548Z,15.78
2018-11-10T12:41:30.661Z,15.74
2018-11-10T12:42:30.571Z,15.80
2018-11-10T12:43:30.501Z,15.86
2018-11-10T12:44:30.497Z,15.88
2018-11-10T12:45:30.492Z,15.85
2018-11-10T12:46:30.515Z,15.92
2018-11-10T12:47:30.525Z,15.98
2018-11-10T12:48:30.466Z,16.07
2018-11-10T12:49:30.429Z,16.13
2018-11-10T12:50:30.432Z,16.08
2018-11-10T12:51:30.549Z,16.22
2018-11-10T12:52:30.429Z,16.30
2018-11-10T12:53:30.472Z,16.30
2018-11-10T12:54:30.372Z,16.37
2018-11-10T12:55:30.406Z,16.47
2018-11-10T12:56:30.391Z,16.50
2018-11-10T12:57:30.394Z,16.50
2018-11-10T12:58:30.430Z,16.59
2018-11-10T12:59:30.331Z,16.75
2018-11-10T13:00:30.332Z,16.66
2018-11-10T13:01:30.335Z,16.62
2018-11-10T13:02:30.289Z,16.73
2018-11-10T13:03:30.325Z,16.66
2018-11-10T13:04:30.298Z,16.72
2018-11-10T13:05:30.309Z,16.75
2018-11-10T13:06:30.294Z,16.73
2018-11-10T13:07:30.259Z,16.69
2018-11-10T13:08:30.235Z,16.73
2018-11-10T13:09:30.353Z,16.78
2018-11-10T13:10:30.226Z,16.82
2018-11-10T13:11:30.357Z,16.73
2018-11-10T13:12:30.203Z,16.66
2018-11-10T13:13:30.190Z,16.62
2018-11-10T13:14:30.198Z,16.67
2018-11-10T13:15:30.267Z,16.59
2018-11-10T13:16:30.218Z,16.62
2018-11-10T13:17:30.241Z,16.59
2018-11-10T13:18:30.152Z,16.50
2018-11-10T13:19:30.122Z,16.51
2018-11-10T13:20:30.106Z,16.51
2018-11-10T13:21:30.233Z,16.47
2018-11-10T13:22:30.090Z,16.62
2018-11-10T13:23:30.067Z,16.59
2018-11-10T13:24:30.062Z,16.59
2018-11-10T13:25:30.111Z,16.66
2018-11-10T13:26:30.070Z,16.65
2018-11-10T13:27:30.065Z,16.62
2018-11-10T13:28:30.068Z,16.60
2018-11-10T13:29:30.046Z,16.63
2018-11-10T13:30:29.991Z,16.66
2018-11-10T13:31:30.096Z,16.77
2018-11-10T13:32:30.002Z,16.81
2018-11-10T13:33:29.960Z,16.73
2018-11-10T13:34:30.039Z,16.82
2018-11-10T13:35:29.937Z,16.88
2018-11-10T13:36:29.968Z,16.84
2018-11-10T13:37:29.951Z,16.88
2018-11-10T13:38:29.998Z,16.92
2018-11-10T13:39:29.893Z,16.95
2018-11-10T13:40:29.897Z,16.88
2018-11-10T13:41:29.934Z,16.87
2018-11-10T13:42:29.924Z,16.85
2018-11-10T13:43:29.885Z,16.82
2018-11-10T13:44:29.903Z,16.77
2018-11-10T13:45:29.845Z,16.88
2018-11-10T13:46:29.862Z,16.85
2018-11-10T13:47:29.893Z,16.82
2018-11-10T13:48:29.797Z,16.70
2018-11-10T13:49:29.800Z,16.73
2018-11-10T13:50:29.847Z,16.88
2018-11-10T13:51:29.996Z,16.75
2018-11-10T13:52:29.995Z,16.67
2018-11-10T13:53:29.746Z,16.77
2018-11-10T13:54:29.848Z,16.65
2018-11-10T13:55:29.736Z,16.54
2018-11-10T13:56:29.726Z,16.57
2018-11-10T13:57:29.742Z,16.54
2018-11-10T13:58:29.721Z,16.50
2018-11-10T13:59:29.792Z,16.48
2018-11-10T14:00:29.670Z,16.52
2018-11-10T14:01:29.691Z,16.48
2018-11-10T14:02:29.644Z,16.51
2018-11-10T14:03:29.693Z,16.42
2018-11-10T14:04:29.626Z,16.45
2018-11-10T14:05:29.668Z,16.42
2018-11-10T14:06:29.652Z,16.45
2018-11-10T14:07:29.612Z,16.36
2018-11-10T14:08:29.597Z,16.36
2018-11-10T14:09:29.600Z,16.37
2018-11-10T14:10:29.709Z,16.37
2018-11-10T14:11:29.584Z,16.42
2018-11-10T14:12:29.617Z,16.41
2018-11-10T14:13:29.556Z,16.42
2018-11-10T14:14:29.523Z,16.55
2018-11-10T14:15:29.523Z,16.51
2018-11-10T14:16:29.525Z,16.55
2018-11-10T14:17:29.529Z,16.48
2018-11-10T14:18:29.469Z,16.59
2018-11-10T14:19:29.472Z,16.47
2018-11-10T14:20:29.539Z,16.47
2018-11-10T14:21:29.455Z,16.44
2018-11-10T14:22:29.427Z,16.32
2018-11-10T14:23:29.457Z,16.36
2018-11-10T14:24:29.430Z,16.27
2018-11-10T14:25:29.463Z,16.30
2018-11-10T14:26:29.552Z,16.29
2018-11-10T14:27:29.408Z,16.18
2018-11-10T14:28:29.384Z,16.17
2018-11-10T14:29:29.534Z,16.18
2018-11-10T14:30:29.355Z,16.22
2018-11-10T14:31:29.344Z,16.17
2018-11-10T14:32:29.344Z,16.27
2018-11-10T14:33:29.372Z,16.26
2018-11-10T14:34:29.334Z,16.32
2018-11-10T14:35:29.354Z,16.34
2018-11-10T14:36:29.298Z,16.47
2018-11-10T14:37:29.309Z,16.50
2018-11-10T14:38:29.266Z,16.50
2018-11-10T14:39:29.305Z,16.62
2018-11-10T14:40:29.276Z,16.57
2018-11-10T14:41:29.238Z,16.48
2018-11-10T14:42:29.231Z,16.45
2018-11-10T14:43:29.333Z,16.47
2018-11-10T14:44:29.230Z,16.47
2018-11-10T14:45:29.237Z,16.47
2018-11-10T14:46:29.167Z,16.37
2018-11-10T14:47:29.182Z,16.34
2018-11-10T14:48:29.159Z,16.27
2018-11-10T14:49:29.146Z,16.33
2018-11-10T14:50:29.136Z,16.14
2018-11-10T14:51:29.118Z,16.22
2018-11-10T14:52:29.232Z,16.08
2018-11-10T14:53:29.101Z,16.08
2018-11-10T14:54:29.086Z,16.08
2018-11-10T14:55:29.083Z,16.08
2018-11-10T14:56:29.077Z,16.08
2018-11-10T14:57:29.070Z,16.03
2018-11-10T14:58:29.198Z,15.96
2018-11-10T14:59:29.035Z,15.91
2018-11-10T15:00:29.060Z,15.88
2018-11-10T15:01:29.025Z,15.74
2018-11-10T15:02:29.037Z,15.74
2018-11-10T15:03:28.983Z,15.76
2018-11-10T15:04:28.998Z,15.70
2018-11-10T15:05:29.042Z,15.70
2018-11-10T15:06:28.970Z,15.60
2018-11-10T15:07:29.048Z,15.49
2018-11-10T15:08:28.953Z,15.51
2018-11-10T15:09:28.928Z,15.38
2018-11-10T15:10:28.988Z,15.41
2018-11-10T15:11:28.943Z,15.38
2018-11-10T15:12:28.918Z,15.38
2018-11-10T15:13:28.904Z,15.28
2018-11-10T15:14:28.881Z,15.27
2018-11-10T15:15:28.878Z,15.20
2018-11-10T15:16:28.899Z,15.20
2018-11-10T15:17:28.900Z,15.27
2018-11-10T15:18:29.033Z,15.23
2018-11-10T15:19:28.880Z,15.13
2018-11-10T15:20:28.827Z,15.18
2018-11-10T15:21:28.786Z,15.11
2018-11-10T15:22:28.789Z,15.18
2018-11-10T15:23:28.773Z,15.00
2018-11-10T15:24:28.757Z,14.93
2018-11-10T15:25:28.857Z,14.85
2018-11-10T15:26:28.816Z,14.75
2018-11-10T15:27:28.744Z,14.72
2018-11-10T15:28:28.726Z,14.72
2018-11-10T15:29:28.705Z,14.52
2018-11-10T15:30:28.706Z,14.52
2018-11-10T15:31:28.697Z,14.39
2018-11-10T15:32:28.675Z,14.34
2018-11-10T15:33:28.671Z,14.29
2018-11-10T15:34:28.652Z,14.13
2018-11-10T15:35:28.778Z,14.17
2018-11-10T15:36:28.632Z,14.08
2018-11-10T15:37:28.675Z,13.94
2018-11-10T15:38:28.633Z,13.94
2018-11-10T15:39:28.586Z,13.84
2018-11-10T15:40:28.574Z,13.84
2018-11-10T15:41:28.573Z,13.93
2018-11-10T15:42:28.595Z,13.79
2018-11-10T15:43:28.540Z,13.73
2018-11-10T15:44:28.528Z,13.66
2018-11-10T15:45:28.532Z,13.63
2018-11-10T15:46:28.542Z,13.61
2018-11-10T15:47:28.510Z,13.61
2018-11-10T15:48:28.487Z,13.62
2018-11-10T15:49:28.494Z,13.54
2018-11-10T15:50:28.503Z,13.54
2018-11-10T15:51:28.477Z,13.46
2018-11-10T15:52:28.471Z,13.36
2018-11-10T15:53:28.430Z,13.28
2018-11-10T15:54:28.425Z,13.29
2018-11-10T15:55:28.409Z,13.27
2018-11-10T15:56:28.399Z,13.29
2018-11-10T15:57:28.414Z,13.22
2018-11-10T15:58:28.512Z,13.19
2018-11-10T15:59:28.394Z,13.12
2018-11-10T16:00:28.357Z,13.04
2018-11-10T16:01:28.372Z,12.98
2018-11-10T16:02:28.379Z,12.99
2018-11-10T16:03:28.328Z,12.95
2018-11-10T16:04:28.311Z,13.04
2018-11-10T16:05:28.387Z,13.25
2018-11-10T16:06:28.294Z,13.50
2018-11-10T16:07:28.296Z,13.55
2018-11-10T16:08:28.270Z,13.66
2018-11-10T16:09:28.255Z,13.75
2018-11-10T16:10:28.308Z,13.87
2018-11-10T16:11:28.287Z,13.86
2018-11-10T16:12:28.245Z,13.99
2018-11-10T16:13:28.214Z,13.96
2018-11-10T16:14:28.204Z,13.93
2018-11-10T16:15:28.191Z,13.98
2018-11-10T16:16:28.182Z,13.93
2018-11-10T16:17:28.278Z,13.75
2018-11-10T16:18:28.167Z,13.63
2018-11-10T16:19:28.147Z,13.63
2018-11-10T16:20:28.135Z,13.53
2018-11-10T16:21:28.126Z,13.38
2018-11-10T16:22:28.224Z,13.29
2018-11-10T16:23:28.109Z,13.25
2018-11-10T16:24:28.275Z,13.13
2018-11-10T16:25:28.090Z,13.13
2018-11-10T16:26:28.071Z,13.10
2018-11-10T16:27:28.081Z,13.22
2018-11-10T16:28:28.104Z,13.29
2018-11-10T16:29:28.059Z,13.27
2018-11-10T16:30:28.049Z,13.39
2018-11-10T16:31:28.082Z,13.38
2018-11-10T16:32:28.055Z,13.46
2018-11-10T16:33:27.998Z,13.55
2018-11-10T16:34:27.991Z,13.53
2018-11-10T16:35:27.983Z,13.50
2018-11-10T16:36:27.968Z,13.53
2018-11-10T16:37:27.971Z,13.53
2018-11-10T16:38:27.964Z,13.51
2018-11-10T16:39:27.960Z,13.57
2018-11-10T16:40:28.011Z,13.55
2018-11-10T16:41:27.910Z,13.47
2018-11-10T16:42:27.941Z,13.54
2018-11-10T16:43:27.884Z,13.57
2018-11-10T16:44:27.875Z,13.54
2018-11-10T16:45:27.865Z,13.38
2018-11-10T16:46:27.920Z,13.43
2018-11-10T16:47:27.885Z,13.38
2018-11-10T16:48:27.863Z,13.43
2018-11-10T16:49:27.854Z,13.48
2018-11-10T16:50:27.853Z,13.36
2018-11-10T16:51:27.804Z,13.55
2018-11-10T16:52:27.812Z,13.55
2018-11-10T16:53:27.935Z,13.54
2018-11-10T16:54:27.771Z,13.51
2018-11-10T16:55:27.757Z,13.54
2018-11-10T16:56:27.744Z,13.44
2018-11-10T16:57:27.753Z,13.39
2018-11-10T16:58:27.807Z,13.43
2018-11-10T16:59:27.765Z,13.54
2018-11-10T17:00:27.706Z,13.51
2018-11-10T17:01:27.690Z,13.53
2018-11-10T17:02:27.700Z,13.54
2018-11-10T17:03:27.669Z,13.54
2018-11-10T17:04:27.661Z,13.55
2018-11-10T17:05:27.673Z,13.54
2018-11-10T17:06:27.643Z,13.65
2018-11-10T17:07:27.692Z,13.54
2018-11-10T17:08:27.642Z,13.61
2018-11-10T17:09:27.625Z,13.63
2018-11-10T17:10:27.612Z,13.71
2018-11-10T17:11:27.683Z,13.72
2018-11-10T17:12:27.590Z,13.68
2018-11-10T17:13:27.585Z,13.72
2018-11-10T17:14:27.583Z,13.69
2018-11-10T17:15:27.611Z,13.68
2018-11-10T17:16:27.545Z,13.63
2018-11-10T17:17:27.568Z,13.69
2018-11-10T17:18:27.504Z,13.61
2018-11-10T17:19:27.491Z,13.61
2018-11-10T17:20:27.505Z,13.73
2018-11-10T17:21:27.474Z,13.63
2018-11-10T17:22:27.482Z,13.57
2018-11-10T17:23:27.526Z,13.63
2018-11-10T17:24:27.454Z,13.54
2018-11-10T17:25:27.431Z,13.43
2018-11-10T17:26:27.418Z,13.39
2018-11-10T17:27:27.459Z,13.27
2018-11-10T17:28:27.393Z,13.31
2018-11-10T17:29:27.442Z,13.35
2018-11-10T17:30:27.402Z,13.39
2018-11-10T17:31:27.360Z,13.43
2018-11-10T17:32:27.381Z,13.61
2018-11-10T17:33:27.350Z,13.55
2018-11-10T17:34:27.357Z,13.75
2018-11-10T17:35:27.371Z,13.79
2018-11-10T17:36:27.309Z,14.04
2018-11-10T17:37:27.297Z,14.19
2018-11-10T17:38:27.302Z,14.45
2018-11-10T17:39:27.303Z,14.49
2018-11-10T17:40:27.263Z,14.60
2018-11-10T17:41:27.291Z,14.49
2018-11-10T17:42:27.278Z,14.49
2018-11-10T17:43:27.276Z,14.42
2018-11-10T17:44:27.233Z,14.34
2018-11-10T17:45:27.206Z,14.26
2018-11-10T17:46:27.207Z,14.30
2018-11-10T17:47:27.183Z,14.34
2018-11-10T17:48:27.270Z,14.24
2018-11-10T17:49:27.228Z,14.12
2018-11-10T17:50:27.161Z,14.06
2018-11-10T17:51:27.160Z,14.04
2018-11-10T17:52:27.144Z,13.91
2018-11-10T17:53:27.179Z,13.79
2018-11-10T17:54:27.107Z,13.72
2018-11-10T17:55:27.221Z,13.68
2018-11-10T17:56:27.087Z,13.59
2018-11-10T17:57:27.074Z,13.51
2018-11-10T17:58:27.123Z,13.46
2018-11-10T17:59:27.051Z,13.43
2018-11-10T18:00:27.040Z,13.35
2018-11-10T18:01:27.102Z,13.21
2018-11-10T18:02:27.029Z,13.10
2018-11-10T18:03:27.024Z,13.06
2018-11-10T18:04:27.006Z,12.94
2018-11-10T18:05:26.991Z,12.91
2018-11-10T18:06:26.975Z,12.76
2018-11-10T18:07:27.018Z,12.80
2018-11-10T18:08:26.966Z,12.73
2018-11-10T18:09:26.957Z,12.71
2018-11-10T18:10:26.952Z,12.61
2018-11-10T18:11:26.922Z,12.61
2018-11-10T18:12:26.944Z,12.54
2018-11-10T18:13:26.916Z,12.58
2018-11-10T18:14:26.966Z,12.66
2018-11-10T18:15:26.881Z,12.44
2018-11-10T18:16:26.894Z,12.67
2018-11-10T18:17:26.854Z,12.74
2018-11-10T18:18:26.857Z,12.77
2018-11-10T18:19:26.861Z,12.70
2018-11-10T18:20:26.819Z,12.67
2018-11-10T18:21:26.865Z,12.70
2018-11-10T18:22:26.808Z,12.59
2018-11-10T18:23:26.865Z,12.61
2018-11-10T18:24:26.777Z,12.61
2018-11-10T18:25:26.816Z,12.58
2018-11-10T18:26:26.760Z,12.61
2018-11-10T18:27:26.831Z,12.51
2018-11-10T18:28:26.759Z,12.55
2018-11-10T18:29:26.758Z,12.56
2018-11-10T18:30:26.712Z,12.52
2018-11-10T18:31:26.701Z,12.44
2018-11-10T18:32:26.718Z,12.48
2018-11-10T18:33:26.696Z,12.49
2018-11-10T18:34:26.712Z,12.40
2018-11-10T18:35:26.669Z,12.48
2018-11-10T18:36:26.653Z,12.46
2018-11-10T18:37:26.633Z,12.46
2018-11-10T18:38:26.665Z,12.40
2018-11-10T18:39:26.628Z,12.41
2018-11-10T18:40:26.645Z,12.38
2018-11-10T18:41:26.599Z,12.36
2018-11-10T18:42:26.581Z,12.36
2018-11-10T18:43:26.597Z,12.37
2018-11-10T18:44:26.555Z,12.37
2018-11-10T18:45:26.547Z,12.36
2018-11-10T18:46:26.562Z,12.36
2018-11-10T18:47:26.526Z,12.34
2018-11-10T18:48:26.524Z,12.26
2018-11-10T18:49:26.500Z,12.26
2018-11-10T18:50:26.490Z,12.29
2018-11-10T18:51:26.486Z,12.16
2018-11-10T18:52:26.619Z,12.15
2018-11-10T18:53:26.471Z,12.18
2018-11-10T18:54:26.449Z,12.16
2018-11-10T18:55:26.443Z,12.19
2018-11-10T18:56:26.441Z,12.18
2018-11-10T18:57:26.591Z,12.13
2018-11-10T18:58:26.514Z,12.36
2018-11-10T18:59:26.430Z,12.38
2018-11-10T19:00:26.413Z,12.25
2018-11-10T19:01:26.368Z,12.33
2018-11-10T19:02:26.362Z,12.26
2018-11-10T19:03:26.363Z,12.31
2018-11-10T19:04:26.336Z,12.23
2018-11-10T19:05:26.325Z,12.13
2018-11-10T19:06:26.414Z,12.15
2018-11-10T19:07:26.340Z,12.16
2018-11-10T19:08:26.362Z,12.07
2018-11-10T19:09:26.281Z,12.15
2018-11-10T19:10:26.277Z,12.04
2018-11-10T19:11:26.258Z,12.03
2018-11-10T19:12:26.252Z,11.98
2018-11-10T19:13:26.250Z,11.88
2018-11-10T19:14:26.251Z,11.90
2018-11-10T19:15:26.245Z,11.78
2018-11-10T19:16:26.206Z,11.78
2018-11-10T19:17:26.202Z,11.72
2018-11-10T19:18:26.195Z,11.74
2018-11-10T19:19:26.179Z,11.74
2018-11-10T19:20:26.166Z,11.57
2018-11-10T19:21:26.177Z,11.66
2018-11-10T19:22:26.182Z,11.64